createdAt,value
2023-04-03T00:02:12.645Z,7.50
2023-04-03T00:05:54.543Z,7.40
2023-04-03T00:09:36.260Z,7.40
2023-04-03T00:13:18.299Z,7.30
2023-04-03T00:17:00.173Z,7.30
2023-04-03T00:20:42.031Z,7.20
2023-04-03T00:24:23.784Z,7.20
2023-04-03T00:28:06.112Z,7.20
2023-04-03T00:31:47.836Z,7.10
2023-04-03T00:35:30.349Z,7.10
2023-04-03T00:39:12.126Z,7.00
2023-04-03T00:42:58.891Z,7.00
2023-04-03T00:46:40.892Z,7.00
2023-04-03T00:50:23.239Z,6.90
2023-04-03T00:54:07.456Z,6.90
2023-04-03T00:57:49.877Z,6.80
2023-04-03T01:01:32.812Z,6.80
2023-04-03T01:05:18.207Z,6.80
2023-04-03T01:09:01.177Z,6.80
2023-04-03T01:12:46.676Z,6.70
2023-04-03T01:16:31.262Z,6.70
2023-04-03T01:20:32.069Z,6.60
2023-04-03T01:24:26.298Z,6.60
2023-04-03T01:28:11.638Z,6.60
2023-04-03T01:32:04.161Z,6.60
2023-04-03T01:35:46.078Z,6.50
2023-04-03T01:39:28.047Z,6.50
2023-04-03T01:43:09.777Z,6.50
2023-04-03T01:46:51.539Z,6.50
2023-04-03T01:50:33.346Z,6.50
2023-04-03T01:54:15.441Z,6.40
2023-04-03T01:57:57.218Z,6.40
2023-04-03T02:01:39.056Z,6.40
2023-04-03T02:05:20.905Z,6.30
2023-04-03T02:09:02.635Z,6.30
2023-04-03T02:12:44.387Z,6.30
2023-04-03T02:16:26.157Z,6.20
2023-04-03T02:20:08.592Z,6.20
2023-04-03T02:23:50.713Z,6.20
2023-04-03T02:27:32.780Z,6.20
2023-04-03T02:31:14.862Z,6.10
2023-04-03T02:34:57.028Z,6.10
2023-04-03T02:38:38.882Z,6.10
2023-04-03T02:42:20.796Z,6.00
2023-04-03T02:46:02.613Z,6.00
2023-04-03T02:49:47.079Z,6.00
2023-04-03T02:53:28.948Z,5.90
2023-04-03T02:57:11.135Z,5.90
2023-04-03T03:00:52.918Z,5.80
2023-04-03T03:04:34.952Z,5.80
2023-04-03T03:08:16.893Z,5.80
2023-04-03T03:11:58.663Z,5.70
2023-04-03T03:15:40.458Z,5.70
2023-04-03T03:19:22.201Z,5.70
2023-04-03T03:23:04.018Z,5.70
2023-04-03T03:26:45.845Z,5.60
2023-04-03T03:30:27.593Z,5.60
2023-04-03T03:34:09.437Z,5.60
2023-04-03T03:37:51.195Z,5.60
2023-04-03T03:41:32.996Z,5.50
2023-04-03T03:45:14.766Z,5.50
2023-04-03T03:48:56.592Z,5.40
2023-04-03T03:52:38.362Z,5.40
2023-04-03T03:56:20.074Z,5.40
2023-04-03T04:00:01.832Z,5.30
2023-04-03T04:03:43.705Z,5.30
2023-04-03T04:07:25.613Z,5.30
2023-04-03T04:11:07.878Z,5.20
2023-04-03T04:14:49.663Z,5.20
2023-04-03T04:18:31.587Z,5.20
2023-04-03T04:22:13.409Z,5.20
2023-04-03T04:25:55.239Z,5.10
2023-04-03T04:29:38.216Z,5.10
2023-04-03T04:33:20.049Z,5.10
2023-04-03T04:37:01.944Z,5.00
2023-04-03T04:40:43.764Z,5.00
2023-04-03T04:44:25.523Z,4.90
2023-04-03T04:48:07.254Z,4.90
2023-04-03T04:51:52.277Z,4.90
2023-04-03T04:55:34.654Z,4.90
2023-04-03T04:59:16.768Z,4.80
2023-04-03T05:02:58.484Z,4.80
2023-04-03T05:06:40.663Z,4.80
2023-04-03T05:10:22.379Z,4.70
2023-04-03T05:14:06.317Z,4.70
2023-04-03T05:17:48.163Z,4.70
2023-04-03T05:21:33.236Z,4.60
2023-04-03T05:25:15.242Z,4.60
2023-04-03T05:28:57.136Z,4.60
2023-04-03T05:32:38.919Z,4.60
2023-04-03T05:36:20.941Z,4.50
2023-04-03T05:40:04.420Z,4.50
2023-04-03T05:43:46.222Z,4.50
2023-04-03T05:47:27.986Z,4.50
2023-04-03T05:51:18.058Z,4.50
2023-04-03T05:54:59.760Z,4.40
2023-04-03T05:58:41.586Z,4.50
2023-04-03T06:02:25.059Z,4.40
2023-04-03T06:06:06.973Z,4.40
2023-04-03T06:09:49.364Z,4.50
2023-04-03T06:13:31.162Z,4.50
2023-04-03T06:17:13.369Z,4.50
2023-04-03T06:20:55.340Z,4.50
2023-04-03T06:24:38.086Z,4.60
2023-04-03T06:28:20.390Z,4.70
2023-04-03T06:32:02.275Z,4.70
2023-04-03T06:35:43.984Z,4.70
2023-04-03T06:39:25.910Z,4.80
2023-04-03T06:43:08.315Z,4.90
2023-04-03T06:46:50.086Z,5.10
2023-04-03T06:50:32.055Z,5.50
2023-04-03T06:54:13.777Z,5.70
2023-04-03T06:57:55.613Z,6.00
2023-04-03T07:01:37.422Z,6.20
2023-04-03T07:05:19.538Z,6.50
2023-04-03T07:09:02.018Z,6.60
2023-04-03T07:12:43.863Z,6.80
2023-04-03T07:16:25.775Z,7.00
2023-04-03T07:20:08.553Z,7.00
2023-04-03T07:23:50.297Z,7.20
2023-04-03T07:27:32.054Z,7.20
2023-04-03T07:31:17.848Z,7.40
2023-04-03T07:35:00.595Z,7.40
2023-04-03T07:38:43.482Z,7.50
2023-04-03T07:42:25.702Z,7.60
2023-04-03T07:46:07.659Z,7.70
2023-04-03T07:49:49.404Z,7.80
2023-04-03T07:53:31.234Z,7.90
2023-04-03T07:57:17.720Z,8.00
2023-04-03T08:01:00.711Z,8.00
2023-04-03T08:04:42.566Z,8.10
2023-04-03T08:08:24.438Z,8.20
2023-04-03T08:12:06.259Z,8.30
2023-04-03T08:15:48.369Z,8.40
2023-04-03T08:19:30.090Z,8.40
2023-04-03T08:23:12.212Z,8.50
2023-04-03T08:26:53.936Z,8.60
2023-04-03T08:30:37.011Z,8.60
2023-04-03T08:34:19.315Z,8.70
2023-04-03T08:38:01.904Z,8.80
2023-04-03T08:41:47.431Z,8.80
2023-04-03T08:45:35.409Z,8.80
2023-04-03T08:49:30.587Z,8.80
2023-04-03T08:53:18.272Z,8.80
2023-04-03T08:57:03.540Z,8.60
2023-04-03T09:00:48.392Z,8.60
2023-04-03T09:04:36.058Z,8.50
2023-04-03T09:08:30.559Z,8.50
2023-04-03T09:12:15.942Z,8.50
2023-04-03T09:15:58.041Z,8.50
2023-04-03T09:19:55.527Z,8.60
2023-04-03T09:23:53.222Z,8.70
2023-04-03T09:27:35.133Z,8.80
2023-04-03T09:31:29.000Z,8.90
2023-04-03T09:35:27.328Z,9.00
2023-04-03T09:39:22.800Z,9.00
2023-04-03T09:43:31.932Z,9.10
2023-04-03T09:47:24.945Z,9.20
2023-04-03T09:51:16.382Z,9.30
2023-04-03T09:55:14.448Z,9.50
2023-04-03T09:59:05.213Z,9.60
2023-04-03T10:02:52.297Z,9.60
2023-04-03T10:06:37.164Z,9.70
2023-04-03T10:10:23.785Z,9.90
2023-04-03T10:14:07.900Z,10.10
2023-04-03T10:17:54.629Z,10.20
2023-04-03T10:21:55.612Z,10.30
2023-04-03T10:25:44.896Z,10.30
2023-04-03T10:29:42.703Z,10.50
2023-04-03T10:33:49.050Z,10.60
2023-04-03T10:37:51.864Z,10.70
2023-04-03T10:41:54.180Z,10.60
2023-04-03T10:45:52.816Z,10.50
2023-04-03T10:49:39.125Z,10.50
2023-04-03T10:53:33.677Z,10.50
2023-04-03T10:57:15.857Z,10.40
2023-04-03T11:01:06.508Z,10.40
2023-04-03T11:04:54.398Z,10.50
2023-04-03T11:08:45.591Z,10.50
2023-04-03T11:12:37.305Z,10.50
2023-04-03T11:16:27.022Z,10.50
2023-04-03T11:20:34.238Z,10.50
2023-04-03T11:24:26.303Z,10.60
2023-04-03T11:28:14.216Z,10.70
2023-04-03T11:31:59.153Z,10.80
2023-04-03T11:35:51.162Z,10.80
2023-04-03T11:39:35.376Z,10.80
2023-04-03T11:43:23.065Z,10.90
2023-04-03T11:47:06.730Z,10.90
2023-04-03T11:50:49.516Z,11.10
2023-04-03T11:54:46.722Z,11.10
2023-04-03T11:58:34.364Z,11.20
2023-04-03T12:02:51.183Z,11.20
2023-04-03T12:06:36.944Z,11.20
2023-04-03T12:10:30.906Z,11.20
2023-04-03T12:14:18.100Z,11.20
2023-04-03T12:18:00.067Z,11.20
2023-04-03T12:21:47.665Z,11.20
2023-04-03T12:25:50.801Z,11.10
2023-04-03T12:29:33.353Z,11.20
2023-04-03T12:33:29.275Z,11.20
2023-04-03T12:37:41.850Z,11.20
2023-04-03T12:41:42.545Z,11.10
2023-04-03T12:45:26.631Z,11.10
2023-04-03T12:49:38.294Z,11.10
2023-04-03T12:53:39.578Z,11.20
2023-04-03T12:57:28.743Z,11.20
2023-04-03T13:01:15.020Z,11.20
2023-04-03T13:05:00.511Z,11.20
2023-04-03T13:08:50.771Z,11.20
2023-04-03T13:12:32.610Z,11.20
2023-04-03T13:16:18.139Z,11.30
2023-04-03T13:20:23.514Z,11.30
2023-04-03T13:24:14.725Z,11.40
2023-04-03T13:31:45.445Z,11.40
2023-04-03T13:35:41.976Z,11.50
2023-04-03T13:39:36.215Z,11.50
2023-04-03T13:43:30.472Z,11.50
2023-04-03T13:47:12.332Z,11.60
2023-04-03T13:51:04.369Z,11.60
2023-04-03T13:54:48.508Z,11.60
2023-04-03T13:58:32.432Z,11.70
2023-04-03T14:02:20.177Z,11.70
2023-04-03T14:06:02.808Z,11.70
2023-04-03T14:09:44.728Z,11.80
2023-04-03T14:13:26.578Z,11.80
2023-04-03T14:17:24.756Z,11.80
2023-04-03T14:21:07.181Z,11.80
2023-04-03T14:24:50.278Z,11.80
2023-04-03T14:28:33.471Z,11.80
2023-04-03T14:32:16.747Z,11.80
2023-04-03T14:35:58.514Z,11.80
2023-04-03T14:39:41.130Z,11.80
2023-04-03T14:43:23.149Z,11.90
2023-04-03T14:47:05.037Z,11.90
2023-04-03T14:50:58.235Z,11.90
2023-04-03T14:54:47.297Z,11.90
2023-04-03T14:58:29.115Z,11.90
2023-04-03T15:02:23.274Z,11.90
2023-04-03T15:06:05.247Z,11.90
2023-04-03T15:09:47.122Z,12.00
2023-04-03T15:13:28.941Z,12.00
2023-04-03T15:17:17.706Z,12.00
2023-04-03T15:20:59.402Z,12.00
2023-04-03T15:24:41.329Z,12.10
2023-04-03T15:28:31.021Z,12.00
2023-04-03T15:32:13.496Z,12.00
2023-04-03T15:36:02.988Z,12.00
2023-04-03T15:39:49.552Z,12.00
2023-04-03T15:43:31.918Z,12.10
2023-04-03T15:47:14.354Z,12.10
2023-04-03T15:50:57.197Z,12.10
2023-04-03T15:54:39.685Z,12.10
2023-04-03T15:58:21.759Z,12.10
2023-04-03T16:02:06.512Z,12.10
2023-04-03T16:05:48.913Z,12.10
2023-04-03T16:09:33.700Z,12.10
2023-04-03T16:13:16.322Z,12.10
2023-04-03T16:16:59.992Z,12.10
2023-04-03T16:20:41.937Z,12.10
2023-04-03T16:24:24.223Z,12.10
2023-04-03T16:28:06.221Z,12.10
2023-04-03T16:31:48.230Z,12.10
2023-04-03T16:35:30.968Z,12.10
2023-04-03T16:39:12.757Z,12.10
2023-04-03T16:42:54.496Z,12.10
2023-04-03T16:46:36.470Z,12.20
2023-04-03T16:50:18.435Z,12.10
2023-04-03T16:54:00.540Z,12.10
2023-04-03T16:57:42.508Z,12.20
2023-04-03T17:01:24.412Z,12.10
2023-04-03T17:05:06.894Z,12.10
2023-04-03T17:08:50.182Z,12.10
2023-04-03T17:12:31.927Z,12.10
2023-04-03T17:16:16.641Z,12.00
2023-04-03T17:19:59.090Z,12.00
2023-04-03T17:23:45.314Z,12.00
2023-04-03T17:27:27.436Z,12.00
2023-04-03T17:31:09.277Z,12.00
2023-04-03T17:34:50.999Z,11.90
2023-04-03T17:38:34.032Z,11.90
2023-04-03T17:42:16.139Z,11.90
2023-04-03T17:46:05.743Z,11.80
2023-04-03T17:49:47.581Z,11.80
2023-04-03T17:53:29.372Z,11.80
2023-04-03T17:57:11.297Z,11.80
2023-04-03T18:00:54.282Z,11.70
2023-04-03T18:04:36.463Z,11.70
2023-04-03T18:08:18.454Z,11.60
2023-04-03T18:12:04.597Z,11.60
2023-04-03T18:15:46.539Z,11.60
2023-04-03T18:23:32.265Z,11.50
2023-04-03T18:27:16.400Z,11.40
2023-04-03T18:30:59.716Z,11.40
2023-04-03T18:34:41.424Z,11.30
2023-04-03T18:38:23.188Z,11.30
2023-04-03T18:42:15.160Z,11.20
2023-04-03T18:45:57.239Z,11.10
2023-04-03T18:49:41.947Z,11.10
2023-04-03T18:53:23.698Z,11.00
2023-04-03T18:57:05.725Z,10.90
2023-04-03T19:00:47.475Z,10.90
2023-04-03T19:04:29.810Z,10.90
2023-04-03T19:08:11.653Z,10.80
2023-04-03T19:11:53.572Z,10.70
2023-04-03T19:15:35.572Z,10.60
2023-04-03T19:19:17.447Z,10.60
2023-04-03T19:22:59.459Z,10.50
2023-04-03T19:26:42.361Z,10.40
2023-04-03T19:30:25.129Z,10.40
2023-04-03T19:34:07.867Z,10.30
2023-04-03T19:37:51.105Z,10.30
2023-04-03T19:41:35.096Z,10.20
2023-04-03T19:45:18.133Z,10.10
2023-04-03T19:48:59.932Z,10.00
2023-04-03T19:52:41.797Z,10.00
2023-04-03T19:56:23.664Z,9.90
2023-04-03T20:00:06.433Z,9.80
2023-04-03T20:03:48.664Z,9.80
2023-04-03T20:07:30.417Z,9.70
2023-04-03T20:11:12.437Z,9.60
2023-04-03T20:14:54.274Z,9.60
2023-04-03T20:18:36.909Z,9.50
2023-04-03T20:22:18.693Z,9.50
2023-04-03T20:26:09.463Z,9.40
2023-04-03T20:29:53.799Z,9.30
2023-04-03T20:33:37.252Z,9.30
2023-04-03T20:37:22.237Z,9.30
2023-04-03T20:41:05.065Z,9.20
2023-04-03T20:44:46.882Z,9.10
2023-04-03T20:48:30.207Z,9.10
2023-04-03T20:52:11.886Z,9.10
2023-04-03T20:56:01.317Z,9.10
2023-04-03T20:59:43.765Z,9.00
2023-04-03T21:03:27.327Z,8.90
2023-04-03T21:07:46.811Z,8.80
2023-04-03T21:12:06.236Z,8.70
2023-04-03T21:15:55.057Z,8.70
2023-04-03T21:19:43.158Z,8.70
2023-04-03T21:23:26.424Z,8.60
2023-04-03T21:27:08.431Z,8.50
2023-04-03T21:30:50.252Z,8.50
2023-04-03T21:34:32.489Z,8.40
2023-04-03T21:38:15.379Z,8.40
2023-04-03T21:41:57.309Z,8.30
2023-04-03T21:45:39.200Z,8.30
2023-04-03T21:49:25.331Z,8.30
2023-04-03T21:53:07.208Z,8.30
2023-04-03T21:56:49.391Z,8.20
2023-04-03T22:00:31.528Z,8.20
2023-04-03T22:04:13.382Z,8.20
2023-04-03T22:07:55.117Z,8.20
2023-04-03T22:11:41.307Z,8.10
2023-04-03T22:15:23.167Z,8.10
2023-04-03T22:19:04.926Z,8.10
2023-04-03T22:22:49.296Z,8.10
2023-04-03T22:26:31.204Z,8.10
2023-04-03T22:30:13.559Z,8.10
2023-04-03T22:33:56.161Z,8.00
2023-04-03T22:37:37.891Z,8.00
2023-04-03T22:41:19.682Z,7.90
2023-04-03T22:45:01.814Z,7.90
2023-04-03T22:48:45.309Z,7.80
2023-04-03T22:52:27.053Z,7.80
2023-04-03T22:56:08.972Z,7.70
2023-04-03T22:59:50.668Z,7.60
2023-04-03T23:03:33.038Z,7.50
2023-04-03T23:07:15.957Z,7.50
2023-04-03T23:10:58.600Z,7.40
2023-04-03T23:14:40.418Z,7.40
2023-04-03T23:18:22.868Z,7.30
2023-04-03T23:22:04.602Z,7.30
2023-04-03T23:25:51.081Z,7.20
2023-04-03T23:29:33.228Z,7.20
2023-04-03T23:33:15.478Z,7.10
2023-04-03T23:36:57.299Z,7.10
2023-04-03T23:40:39.322Z,7.00
2023-04-03T23:44:21.810Z,7.00
2023-04-03T23:48:03.794Z,7.00
2023-04-03T23:51:45.575Z,6.90
2023-04-03T23:55:27.604Z,6.90
2023-04-03T23:59:09.373Z,6.80
